Time;durP1;ratioP1;P1;durP2;ratioP2;P2;SDS_P1;SDS_P2;PMS_P1;PMS_P2;Temp;Humidity;BMP_temperature;BMP_pressure;BME280_temperature;BME280_humidity;BME280_pressure;Samples;Min_cycle;Max_cycle;Signal;HPM_P1;HPM_P2
2022/07/10 00:00:44;;;;;;;8.15;7.05;;;15.50;99.90;;;;;;4989078;28;20035;-74
2022/07/10 00:03:11;;;;;;;9.00;6.13;;;15.50;99.90;;;;;;5010606;28;20054;-74
2022/07/10 00:05:37;;;;;;;9.48;6.35;;;15.60;99.90;;;;;;4993609;28;20037;-75
2022/07/10 00:08:04;;;;;;;8.20;6.00;;;15.60;99.90;;;;;;5010974;28;20036;-74
2022/07/10 00:10:30;;;;;;;5.70;4.97;;;15.60;99.90;;;;;;5011362;28;20052;-74
2022/07/10 00:12:56;;;;;;;5.38;4.68;;;15.60;99.90;;;;;;5009915;28;20057;-75
2022/07/10 00:15:23;;;;;;;6.00;4.63;;;15.70;99.90;;;;;;5011730;28;20083;-74
2022/07/10 00:17:49;;;;;;;6.03;4.65;;;15.60;99.90;;;;;;5011001;28;20041;-75
2022/07/10 00:20:16;;;;;;;6.95;3.80;;;15.60;99.90;;;;;;5011865;28;20041;-74
2022/07/10 00:22:43;;;;;;;5.07;3.88;;;15.60;99.90;;;;;;5009611;28;20038;-75
2022/07/10 00:25:11;;;;;;;4.93;3.90;;;15.60;99.90;;;;;;5011574;28;20038;-74
2022/07/10 00:27:37;;;;;;;4.75;3.60;;;15.50;99.90;;;;;;5010703;28;20486;-74
2022/07/10 00:30:04;;;;;;;6.82;4.22;;;15.50;99.90;;;;;;4992962;28;20046;-74
2022/07/10 00:32:30;;;;;;;4.88;3.63;;;15.50;99.90;;;;;;5009831;28;20529;-76
2022/07/10 00:34:56;;;;;;;5.75;4.13;;;15.40;99.90;;;;;;5009612;28;20046;-75
2022/07/10 00:37:23;;;;;;;5.55;3.40;;;15.40;99.90;;;;;;5012011;28;20033;-75
2022/07/10 00:39:49;;;;;;;3.85;3.30;;;15.40;99.90;;;;;;5010455;28;20037;-75
2022/07/10 00:42:15;;;;;;;12.02;4.25;;;15.40;99.90;;;;;;5010214;28;20033;-75
2022/07/10 00:44:43;;;;;;;4.47;3.97;;;15.30;99.90;;;;;;5010937;28;20038;-77
2022/07/10 00:47:10;;;;;;;4.95;2.90;;;15.30;99.90;;;;;;5011493;28;20034;-75
2022/07/10 00:49:38;;;;;;;4.82;4.03;;;15.20;99.90;;;;;;5010558;28;20041;-76
2022/07/10 00:52:10;;;;;;;4.82;3.47;;;15.20;99.90;;;;;;5005246;28;20033;-75
2022/07/10 00:54:37;;;;;;;5.90;4.07;;;15.10;99.90;;;;;;5011261;28;20038;-75
2022/07/10 00:57:07;;;;;;;6.10;3.55;;;15.00;99.90;;;;;;5010279;28;20026;-76
2022/07/10 00:59:35;;;;;;;4.53;3.63;;;14.90;99.90;;;;;;5008171;28;20053;-75
2022/07/10 01:02:05;;;;;;;6.80;3.45;;;14.80;99.90;;;;;;5008906;28;20049;-75
2022/07/10 01:04:32;;;;;;;4.80;4.03;;;14.70;99.90;;;;;;5011071;28;20049;-75
2022/07/10 01:06:58;;;;;;;4.70;3.65;;;14.50;99.90;;;;;;5009918;28;20041;-75
2022/07/10 01:09:25;;;;;;;6.13;3.53;;;14.50;99.90;;;;;;5014237;28;20022;-75
2022/07/10 01:11:51;;;;;;;5.07;3.63;;;14.50;99.90;;;;;;5013203;28;20042;-75
2022/07/10 01:14:18;;;;;;;8.93;3.50;;;14.50;99.90;;;;;;5014379;28;20399;-75
2022/07/10 01:16:45;;;;;;;3.25;2.65;;;14.60;99.90;;;;;;5013630;28;20487;-75
2022/07/10 01:19:11;;;;;;;4.53;3.45;;;14.50;99.90;;;;;;5014866;28;20382;-75
2022/07/10 01:21:37;;;;;;;4.43;2.45;;;14.60;99.90;;;;;;4995962;28;20065;-74
2022/07/10 01:24:06;;;;;;;5.95;3.53;;;14.50;99.90;;;;;;5013935;28;20026;-74
2022/07/10 01:26:33;;;;;;;5.75;3.17;;;14.50;99.90;;;;;;5014642;28;20058;-74
2022/07/10 01:29:03;;;;;;;3.53;3.08;;;14.50;99.90;;;;;;5013371;28;20486;-74
2022/07/10 01:31:29;;;;;;;3.38;2.30;;;14.50;99.90;;;;;;5012875;28;20053;-75
2022/07/10 01:33:56;;;;;;;8.45;2.83;;;14.40;99.90;;;;;;5014068;28;20038;-74
2022/07/10 01:36:23;;;;;;;7.72;2.70;;;14.30;99.90;;;;;;5013613;28;20045;-74
2022/07/10 01:38:54;;;;;;;3.35;2.67;;;14.30;99.90;;;;;;4994192;28;20394;-74
2022/07/10 01:41:20;;;;;;;3.92;2.15;;;14.30;99.90;;;;;;5012180;28;20030;-74
2022/07/10 01:43:48;;;;;;;3.25;2.33;;;14.30;99.90;;;;;;5012859;28;20471;-75
2022/07/10 01:46:14;;;;;;;4.47;2.42;;;14.30;99.90;;;;;;5013815;28;20050;-74
2022/07/10 01:48:42;;;;;;;4.65;2.53;;;14.40;99.90;;;;;;5013670;28;20037;-74
2022/07/10 01:51:09;;;;;;;4.82;2.78;;;14.40;99.90;;;;;;5012486;28;20471;-75
2022/07/10 01:53:36;;;;;;;5.07;2.45;;;14.40;99.90;;;;;;5014053;28;20040;-74
2022/07/10 01:56:05;;;;;;;4.53;2.60;;;14.40;99.90;;;;;;5013506;28;20026;-74
2022/07/10 01:58:32;;;;;;;6.53;3.10;;;14.40;99.90;;;;;;5014100;28;20368;-74
2022/07/10 02:00:58;;;;;;;5.32;2.17;;;14.30;99.90;;;;;;4995670;28;20052;-74
2022/07/10 02:06:09;;;;;;;4.82;2.33;;;14.40;99.90;;;;;;5013697;28;20359;-74
2022/07/10 02:08:35;;;;;;;5.90;2.28;;;14.40;99.90;;;;;;5013210;28;20549;-74
2022/07/10 02:11:01;;;;;;;3.92;2.28;;;14.40;99.90;;;;;;5013243;28;20477;-75
2022/07/10 02:13:28;;;;;;;3.55;2.45;;;14.40;99.90;;;;;;5012987;28;20053;-75
2022/07/10 02:15:55;;;;;;;4.03;2.20;;;14.40;99.90;;;;;;5011982;28;20050;-75
2022/07/10 02:18:21;;;;;;;11.40;2.50;;;14.40;99.90;;;;;;5013021;28;20025;-74
2022/07/10 02:20:48;;;;;;;8.30;2.80;;;14.40;99.90;;;;;;5012142;28;20443;-75
2022/07/10 02:23:14;;;;;;;4.70;2.17;;;14.40;99.90;;;;;;5012310;28;20029;-74
2022/07/10 02:25:40;;;;;;;2.80;1.95;;;14.40;99.90;;;;;;5013870;28;20030;-74
2022/07/10 02:28:08;;;;;;;4.22;2.28;;;14.40;99.90;;;;;;5011492;28;20042;-75
2022/07/10 02:30:34;;;;;;;3.05;1.75;;;14.40;99.90;;;;;;5013463;28;20044;-74
2022/07/10 02:33:01;;;;;;;4.75;1.98;;;14.40;99.90;;;;;;5018094;28;20049;-75
2022/07/10 02:35:27;;;;;;;3.47;1.70;;;14.40;99.90;;;;;;5033913;28;20033;-75
2022/07/10 02:37:54;;;;;;;2.88;1.30;;;14.50;99.90;;;;;;5027894;28;20033;-74
2022/07/10 02:40:20;;;;;;;2.17;1.52;;;14.60;99.90;;;;;;5012500;28;20026;-74
2022/07/10 02:42:46;;;;;;;3.92;1.50;;;14.60;99.90;;;;;;5010865;28;20054;-76
2022/07/10 02:45:12;;;;;;;5.55;1.35;;;14.70;99.90;;;;;;5009378;28;20037;-75
2022/07/10 02:47:39;;;;;;;3.42;1.40;;;14.70;99.90;;;;;;5013417;28;20034;-75
2022/07/10 02:50:06;;;;;;;2.95;1.83;;;14.80;99.90;;;;;;5012277;28;20026;-74
2022/07/10 02:52:32;;;;;;;3.05;1.48;;;14.80;99.90;;;;;;5010896;28;20041;-75
2022/07/10 02:54:58;;;;;;;2.67;1.40;;;14.80;99.90;;;;;;5012291;28;20046;-75
2022/07/10 02:57:25;;;;;;;3.40;1.10;;;14.80;99.90;;;;;;5011393;28;20049;-75
2022/07/10 02:59:51;;;;;;;2.70;1.63;;;14.80;99.90;;;;;;5011655;28;20030;-75
2022/07/10 03:02:17;;;;;;;5.40;1.73;;;14.90;99.90;;;;;;5011402;28;20061;-75
2022/07/10 03:04:44;;;;;;;5.72;1.67;;;14.80;99.90;;;;;;5012857;28;20046;-75
2022/07/10 03:07:10;;;;;;;3.83;1.08;;;14.80;99.90;;;;;;5012479;28;20033;-75
2022/07/10 03:09:36;;;;;;;6.78;1.70;;;14.70;99.90;;;;;;5012688;28;20042;-75
2022/07/10 03:12:03;;;;;;;6.05;1.27;;;14.60;99.90;;;;;;5010846;28;20038;-75
2022/07/10 03:14:29;;;;;;;3.42;1.45;;;14.60;99.90;;;;;;5012778;28;20471;-75
2022/07/10 03:16:55;;;;;;;3.05;1.55;;;14.50;99.90;;;;;;5012074;28;20041;-75
2022/07/10 03:19:21;;;;;;;9.68;1.42;;;14.50;99.90;;;;;;5012478;28;20494;-75
2022/07/10 03:21:47;;;;;;;5.18;1.35;;;14.50;99.90;;;;;;5011571;28;20034;-76
2022/07/10 03:24:13;;;;;;;2.67;1.58;;;14.50;99.90;;;;;;4994647;28;20034;-74
2022/07/10 03:26:40;;;;;;;3.25;1.33;;;14.40;99.90;;;;;;5011963;28;20037;-74
2022/07/10 03:29:06;;;;;;;4.20;2.00;;;14.40;99.90;;;;;;5011881;28;20046;-75
2022/07/10 03:31:32;;;;;;;3.20;1.52;;;14.30;99.90;;;;;;5010251;28;20029;-74
2022/07/10 03:33:59;;;;;;;4.88;1.67;;;14.30;99.90;;;;;;5010834;28;20061;-75
2022/07/10 03:36:25;;;;;;;2.72;1.30;;;14.30;99.90;;;;;;5012353;28;20046;-75
2022/07/10 03:38:51;;;;;;;4.90;1.63;;;14.20;99.90;;;;;;5011601;28;20382;-75
2022/07/10 03:41:17;;;;;;;4.45;1.48;;;14.10;99.90;;;;;;5010328;28;20037;-75
2022/07/10 03:43:43;;;;;;;4.28;1.55;;;14.20;99.90;;;;;;5012076;28;20038;-74
2022/07/10 03:46:10;;;;;;;4.10;1.42;;;14.10;99.90;;;;;;5011465;28;20034;-75
2022/07/10 03:48:36;;;;;;;4.68;1.33;;;14.20;99.90;;;;;;5012432;28;20034;-76
2022/07/10 03:51:02;;;;;;;4.50;1.65;;;14.10;99.90;;;;;;5010151;28;20447;-75
2022/07/10 03:53:28;;;;;;;7.25;2.42;;;14.10;99.90;;;;;;5011515;28;20355;-75
2022/07/10 03:55:54;;;;;;;8.45;1.45;;;14.10;99.90;;;;;;5011410;28;20037;-74
2022/07/10 03:58:21;;;;;;;6.13;1.77;;;14.10;99.90;;;;;;5011924;28;20030;-74
2022/07/10 04:00:47;;;;;;;2.80;1.80;;;14.20;99.90;;;;;;5011247;28;20041;-77
2022/07/10 04:03:13;;;;;;;3.20;1.27;;;14.20;99.90;;;;;;5010873;28;20080;-75
2022/07/10 04:05:40;;;;;;;4.13;1.42;;;14.20;99.90;;;;;;5011651;28;20471;-75
2022/07/10 04:08:08;;;;;;;4.13;1.02;;;14.30;99.90;;;;;;5011282;28;20030;-75
2022/07/10 04:10:35;;;;;;;2.80;0.93;;;14.40;99.90;;;;;;5011117;28;20034;-74
2022/07/10 04:13:01;;;;;;;3.95;1.30;;;14.50;99.90;;;;;;5010041;28;20061;-74
2022/07/10 04:15:27;;;;;;;1.75;0.80;;;14.50;99.90;;;;;;5011708;28;20041;-75
2022/07/10 04:17:53;;;;;;;2.08;0.73;;;14.60;99.90;;;;;;5011251;28;20030;-74
2022/07/10 04:20:21;;;;;;;4.22;1.08;;;14.60;99.90;;;;;;5012056;28;20037;-74
2022/07/10 04:22:47;;;;;;;5.90;2.08;;;14.60;99.90;;;;;;5010308;28;20049;-76
2022/07/10 04:25:14;;;;;;;5.22;1.10;;;14.60;99.90;;;;;;5010933;28;20098;-75
2022/07/10 04:27:40;;;;;;;5.28;1.50;;;14.60;99.90;;;;;;5011350;28;20045;-73
2022/07/10 04:30:07;;;;;;;4.60;1.15;;;14.50;99.90;;;;;;5010954;28;20026;-74
2022/07/10 04:32:33;;;;;;;4.20;1.00;;;14.40;99.90;;;;;;5009844;28;20468;-75
2022/07/10 04:35:00;;;;;;;3.67;1.60;;;14.30;99.90;;;;;;5010896;28;20050;-74
2022/07/10 04:37:29;;;;;;;4.55;1.25;;;14.40;99.90;;;;;;5011771;28;20096;-75
2022/07/10 04:39:55;;;;;;;5.40;0.90;;;14.40;99.90;;;;;;5011212;28;20109;-75
2022/07/10 04:42:21;;;;;;;5.97;1.60;;;14.50;99.90;;;;;;5011341;28;20041;-74
2022/07/10 04:44:47;;;;;;;5.65;2.25;;;14.60;99.90;;;;;;5014814;28;20045;-75
2022/07/10 04:47:13;;;;;;;3.08;1.70;;;14.50;99.90;;;;;;5015036;28;20030;-74
2022/07/10 04:49:39;;;;;;;6.15;1.52;;;14.50;99.90;;;;;;5015178;28;20037;-75
2022/07/10 04:52:06;;;;;;;1.40;0.80;;;14.50;99.90;;;;;;5013768;28;20471;-74
2022/07/10 04:54:32;;;;;;;4.30;1.52;;;14.60;99.90;;;;;;5015405;28;20030;-74
2022/07/10 04:57:00;;;;;;;2.67;1.02;;;14.80;99.90;;;;;;5014751;28;20029;-75
2022/07/10 04:59:26;;;;;;;4.03;1.10;;;15.70;99.90;;;;;;5015052;28;20045;-74
2022/07/10 05:01:52;;;;;;;11.25;1.00;;;16.80;99.90;;;;;;5013267;28;20402;-74
2022/07/10 05:04:18;;;;;;;2.70;0.70;;;17.10;99.90;;;;;;5014997;28;20053;-73
2022/07/10 05:06:44;;;;;;;3.72;1.10;;;16.20;99.90;;;;;;5015074;28;20030;-74
2022/07/10 05:09:10;;;;;;;3.45;0.85;;;15.50;99.90;;;;;;5014575;28;20033;-74
2022/07/10 05:11:37;;;;;;;2.58;0.80;;;15.40;99.90;;;;;;5014061;28;20053;-74
2022/07/10 05:14:03;;;;;;;6.68;1.38;;;15.20;99.90;;;;;;5014493;28;20034;-75
2022/07/10 05:16:29;;;;;;;2.08;0.77;;;14.90;99.90;;;;;;5014890;28;20038;-75
2022/07/10 05:18:55;;;;;;;4.80;1.05;;;14.80;99.90;;;;;;5013260;28;20049;-75
2022/07/10 05:21:22;;;;;;;2.42;1.00;;;14.80;99.90;;;;;;5013616;28;20092;-75
2022/07/10 05:23:48;;;;;;;10.32;2.45;;;14.90;99.90;;;;;;5015386;28;20387;-76
2022/07/10 05:26:14;;;;;;;6.50;1.20;;;15.00;99.90;;;;;;5014331;28;20030;-75
2022/07/10 05:28:40;;;;;;;4.68;1.30;;;14.90;99.90;;;;;;5014707;28;20037;-75
2022/07/10 05:31:06;;;;;;;3.83;0.90;;;14.90;99.90;;;;;;4995197;28;20630;-74
2022/07/10 05:33:33;;;;;;;6.65;0.90;;;14.90;99.90;;;;;;4997034;28;20046;-75
2022/07/10 05:36:00;;;;;;;2.63;0.80;;;15.00;99.90;;;;;;4996686;28;20045;-75
2022/07/10 05:38:26;;;;;;;5.93;1.30;;;14.90;99.90;;;;;;5013753;28;20042;-75
2022/07/10 05:40:53;;;;;;;2.75;1.35;;;15.10;99.90;;;;;;5012657;28;20391;-74
2022/07/10 05:43:20;;;;;;;2.83;0.70;;;15.90;99.90;;;;;;5014634;28;20048;-74
2022/07/10 05:45:46;;;;;;;2.38;0.90;;;15.70;99.90;;;;;;5014137;28;20382;-76
2022/07/10 05:48:13;;;;;;;2.85;0.95;;;15.50;99.90;;;;;;5007353;28;20042;-76
2022/07/10 05:50:39;;;;;;;2.10;0.50;;;15.40;99.90;;;;;;5007687;28;20042;-77
2022/07/10 05:53:05;;;;;;;2.92;1.00;;;15.20;99.90;;;;;;5011582;28;20041;-74
2022/07/10 05:55:31;;;;;;;3.97;0.90;;;15.10;99.90;;;;;;5013528;28;20034;-74
2022/07/10 05:57:58;;;;;;;1.65;0.65;;;15.20;99.90;;;;;;5013836;28;20041;-74
2022/07/10 06:00:25;;;;;;;8.95;1.13;;;15.60;99.90;;;;;;5013628;28;20053;-73
2022/07/10 06:02:51;;;;;;;1.27;0.40;;;15.70;99.90;;;;;;5004621;28;20065;-76
2022/07/10 06:05:17;;;;;;;2.50;0.70;;;15.70;99.90;;;;;;5012440;28;20049;-75
2022/07/10 06:07:43;;;;;;;4.13;0.95;;;15.40;99.90;;;;;;5013276;28;20037;-75
2022/07/10 06:10:09;;;;;;;6.20;0.80;;;15.80;99.90;;;;;;5013406;28;20034;-76
2022/07/10 06:12:37;;;;;;;3.10;1.10;;;16.70;97.50;;;;;;5012659;28;20037;-74
2022/07/10 06:15:04;;;;;;;1.85;0.40;;;17.00;97.00;;;;;;4995923;28;20042;-75
2022/07/10 06:17:30;;;;;;;2.33;0.60;;;17.50;95.10;;;;;;5013776;28;20037;-76
2022/07/10 06:19:56;;;;;;;4.03;0.88;;;18.00;92.70;;;;;;5011624;28;20501;-76
2022/07/10 06:22:32;;;;;;;2.25;0.50;;;18.70;91.30;;;;;;5012820;28;20030;-74
2022/07/10 06:25:04;;;;;;;2.10;0.75;;;18.80;87.10;;;;;;5012980;28;20038;-73
2022/07/10 06:27:31;;;;;;;1.80;0.65;;;18.40;87.70;;;;;;5013115;28;20052;-73
2022/07/10 06:29:58;;;;;;;3.97;0.80;;;18.80;84.90;;;;;;5013304;28;20037;-75
2022/07/10 06:32:25;;;;;;;3.95;0.60;;;18.90;81.10;;;;;;5012196;28;20044;-75
2022/07/10 06:34:52;;;;;;;1.20;0.50;;;19.00;81.10;;;;;;5012735;28;20041;-74
2022/07/10 06:37:18;;;;;;;4.63;0.60;;;18.30;80.00;;;;;;5013555;28;20029;-74
2022/07/10 06:39:47;;;;;;;1.58;0.50;;;17.90;83.40;;;;;;5013173;28;20033;-74
2022/07/10 06:42:14;;;;;;;0.80;0.40;;;18.30;81.80;;;;;;5012249;28;20612;-74
2022/07/10 06:44:42;;;;;;;1.48;0.30;;;18.20;81.90;;;;;;4992406;28;20057;-76
2022/07/10 06:49:54;;;;;;;3.17;0.68;;;19.80;74.20;;;;;;5012912;28;20026;-75
2022/07/10 06:52:21;;;;;;;3.10;0.68;;;19.60;71.90;;;;;;5012336;28;20045;-74
2022/07/10 06:54:47;;;;;;;2.90;0.50;;;20.10;71.20;;;;;;5013292;28;20060;-75
2022/07/10 06:57:14;;;;;;;2.20;0.52;;;19.30;72.40;;;;;;5012437;28;20042;-74
2022/07/10 06:59:40;;;;;;;1.75;0.50;;;19.00;74.00;;;;;;5013276;28;20037;-76
2022/07/10 07:02:07;;;;;;;6.65;0.57;;;17.70;73.90;;;;;;5011467;28;20041;-76
2022/07/10 07:04:33;;;;;;;1.50;0.40;;;17.30;76.30;;;;;;5020158;28;20049;-75
2022/07/10 07:07:01;;;;;;;2.13;0.40;;;18.30;75.50;;;;;;5035306;28;20044;-75
2022/07/10 07:09:27;;;;;;;1.35;0.40;;;19.70;70.10;;;;;;5024102;28;20044;-74
2022/07/10 07:11:53;;;;;;;3.10;0.32;;;19.80;66.60;;;;;;5011027;28;20037;-74
2022/07/10 07:14:19;;;;;;;3.72;0.60;;;19.10;69.20;;;;;;4995457;28;20048;-74
2022/07/10 07:16:56;;;;;;;2.95;0.52;;;19.10;67.80;;;;;;4991565;28;20089;-75
2022/07/10 07:19:30;;;;;;;0.98;0.40;;;19.10;68.20;;;;;;5015835;28;20037;-75
2022/07/10 07:24:44;;;;;;;1.30;0.50;;;17.40;67.70;;;;;;5027301;28;20470;-75
2022/07/10 07:27:11;;;;;;;1.05;0.35;;;16.90;70.80;;;;;;4994910;28;20049;-75
2022/07/10 07:29:38;;;;;;;1.38;0.60;;;16.90;71.10;;;;;;5011627;28;20045;-74
2022/07/10 07:32:04;;;;;;;1.58;0.95;;;16.60;71.40;;;;;;5011036;28;20038;-74
2022/07/10 07:34:30;;;;;;;2.78;0.55;;;16.50;71.80;;;;;;5012379;28;20391;-75
2022/07/10 07:36:57;;;;;;;0.88;0.28;;;16.40;72.50;;;;;;4987202;28;20042;-75
2022/07/10 07:39:24;;;;;;;2.03;0.38;;;16.30;73.60;;;;;;5011799;28;20042;-75
2022/07/10 07:41:50;;;;;;;13.75;0.95;;;16.30;72.70;;;;;;5010853;28;20459;-76
2022/07/10 07:44:17;;;;;;;2.25;0.45;;;17.30;71.40;;;;;;5012451;28;20033;-74
2022/07/10 07:46:44;;;;;;;2.35;0.40;;;18.60;68.20;;;;;;5012437;28;20026;-75
2022/07/10 07:49:10;;;;;;;2.33;0.60;;;19.80;63.60;;;;;;4994087;28;20204;-75
2022/07/10 07:51:37;;;;;;;1.08;0.65;;;20.10;60.80;;;;;;5010968;28;20060;-75
2022/07/10 07:54:03;;;;;;;0.70;0.32;;;20.20;60.80;;;;;;5010933;28;20034;-75
2022/07/10 07:56:29;;;;;;;1.13;0.30;;;19.40;60.70;;;;;;5012046;28;20044;-75
2022/07/10 07:58:56;;;;;;;1.40;0.40;;;19.30;62.20;;;;;;4993553;28;20072;-75
2022/07/10 08:01:22;;;;;;;2.85;0.32;;;20.60;60.80;;;;;;5010360;28;20034;-75
2022/07/10 08:03:49;;;;;;;1.38;0.50;;;21.60;57.60;;;;;;5010821;28;20487;-75
2022/07/10 08:06:15;;;;;;;1.58;0.43;;;20.90;57.70;;;;;;4991279;28;20476;-74
2022/07/10 08:08:41;;;;;;;1.63;0.60;;;20.00;58.00;;;;;;5011838;28;20105;-75
2022/07/10 08:11:07;;;;;;;1.33;0.38;;;19.20;59.70;;;;;;5010081;28;20038;-75
2022/07/10 08:13:34;;;;;;;3.63;0.98;;;18.10;61.70;;;;;;5000953;28;20476;-76
2022/07/10 08:16:01;;;;;;;3.58;0.60;;;17.90;63.60;;;;;;5011774;28;20038;-75
2022/07/10 08:18:27;;;;;;;2.15;0.70;;;17.80;65.30;;;;;;5011733;28;20030;-75
2022/07/10 08:20:53;;;;;;;1.70;0.30;;;19.00;62.90;;;;;;5009554;28;20033;-77
2022/07/10 08:23:19;;;;;;;2.38;0.45;;;19.20;61.20;;;;;;5012031;28;20045;-76
2022/07/10 08:25:45;;;;;;;3.33;0.50;;;19.10;61.30;;;;;;4993090;28;20483;-76
2022/07/10 08:28:11;;;;;;;0.73;0.30;;;18.40;62.30;;;;;;5010616;28;20037;-74
2022/07/10 08:30:38;;;;;;;1.48;0.50;;;18.50;62.00;;;;;;5009978;28;20034;-75
2022/07/10 08:33:04;;;;;;;2.83;0.70;;;19.00;61.10;;;;;;5011226;28;20040;-75
2022/07/10 08:35:31;;;;;;;1.10;0.35;;;19.70;58.80;;;;;;5011008;28;20037;-76
2022/07/10 08:37:57;;;;;;;3.65;0.60;;;20.20;58.60;;;;;;5010947;28;20037;-76
2022/07/10 08:40:23;;;;;;;2.35;0.50;;;19.80;57.60;;;;;;5011008;28;20025;-77
2022/07/10 08:42:50;;;;;;;1.35;0.30;;;20.20;58.20;;;;;;4993677;28;20045;-76
2022/07/10 08:45:17;;;;;;;2.17;0.40;;;19.50;58.70;;;;;;5011426;28;20404;-75
2022/07/10 08:47:44;;;;;;;2.13;0.50;;;19.40;58.60;;;;;;5010921;28;20030;-76
2022/07/10 08:50:17;;;;;;;1.98;0.40;;;19.20;59.10;;;;;;4993307;28;20030;-77
2022/07/10 08:52:55;;;;;;;4.03;1.05;;;18.60;60.40;;;;;;5005745;28;20060;-76
2022/07/10 08:55:25;;;;;;;4.10;1.40;;;18.90;60.40;;;;;;5012238;28;20049;-76
2022/07/10 08:57:53;;;;;;;3.38;0.80;;;19.80;58.90;;;;;;5009236;28;20037;-79
2022/07/10 09:00:20;;;;;;;2.70;0.40;;;19.20;58.40;;;;;;5010060;28;20034;-78
2022/07/10 09:02:46;;;;;;;3.97;0.70;;;18.20;59.80;;;;;;5010256;28;20041;-76
2022/07/10 09:05:12;;;;;;;4.22;0.43;;;17.90;61.40;;;;;;5003512;28;20639;-76
2022/07/10 09:07:41;;;;;;;2.63;0.55;;;19.00;59.10;;;;;;5010495;28;20405;-77
2022/07/10 09:10:09;;;;;;;1.88;0.30;;;19.80;57.60;;;;;;5010149;28;20045;-76
2022/07/10 09:12:57;;;;;;;4.93;0.50;;;20.00;56.80;;;;;;5009298;28;20030;-77
2022/07/10 09:15:26;;;;;;;3.42;0.65;;;20.20;55.80;;;;;;5011286;28;20483;-76
2022/07/10 09:18:12;;;;;;;1.60;0.50;;;20.00;56.20;;;;;;5011525;28;20037;-77
2022/07/10 09:20:44;;;;;;;1.45;0.68;;;19.20;57.10;;;;;;5016445;28;20569;-75
2022/07/10 09:23:20;;;;;;;3.80;0.65;;;18.80;57.80;;;;;;5010189;28;20037;-76
2022/07/10 09:25:47;;;;;;;2.25;0.65;;;19.50;55.50;;;;;;5011511;28;20034;-76
2022/07/10 09:28:16;;;;;;;3.70;0.40;;;20.60;56.20;;;;;;5010471;28;20014;-73
2022/07/10 09:30:43;;;;;;;2.85;0.43;;;20.60;54.70;;;;;;5012246;28;20057;-74
2022/07/10 09:33:30;;;;;;;2.80;0.32;;;21.10;53.50;;;;;;5014138;28;20034;-75
2022/07/10 09:36:10;;;;;;;2.67;0.50;;;21.00;54.00;;;;;;5013881;28;20026;-76
2022/07/10 09:38:42;;;;;;;5.30;0.73;;;21.80;52.60;;;;;;5014355;28;20041;-75
2022/07/10 09:41:16;;;;;;;2.72;0.40;;;21.50;53.80;;;;;;4990320;28;20113;-75
2022/07/10 09:43:52;;;;;;;3.97;0.60;;;21.10;55.30;;;;;;4997203;28;20045;-75
2022/07/10 09:46:21;;;;;;;3.70;0.55;;;21.60;55.90;;;;;;5013345;28;20355;-74
2022/07/10 09:48:48;;;;;;;0.98;0.32;;;20.90;53.80;;;;;;5013681;28;20030;-74
2022/07/10 09:51:14;;;;;;;2.55;0.45;;;19.50;55.70;;;;;;5012375;28;20026;-76
2022/07/10 09:53:43;;;;;;;2.83;0.30;;;19.60;55.20;;;;;;5014339;28;20034;-74
2022/07/10 09:56:11;;;;;;;2.28;0.40;;;20.80;54.60;;;;;;5013447;28;20034;-74
2022/07/10 09:58:38;;;;;;;3.72;0.60;;;21.10;53.50;;;;;;5008429;28;20030;-75
2022/07/10 10:01:06;;;;;;;3.17;0.50;;;20.80;53.80;;;;;;5012417;28;20038;-75
2022/07/10 10:03:34;;;;;;;2.67;0.47;;;21.20;54.20;;;;;;5007535;28;20042;-73
2022/07/10 10:06:14;;;;;;;1.15;0.40;;;20.80;53.40;;;;;;5009768;28;20042;-73
2022/07/10 10:08:57;;;;;;;1.88;0.30;;;21.10;53.50;;;;;;5013135;28;20033;-74
2022/07/10 10:11:26;;;;;;;3.33;0.65;;;21.40;53.00;;;;;;5012376;28;20033;-74
2022/07/10 10:13:53;;;;;;;4.00;0.50;;;21.40;52.90;;;;;;5013752;28;20147;-77
2022/07/10 10:16:20;;;;;;;1.52;0.40;;;21.20;53.50;;;;;;5013248;28;20383;-74
2022/07/10 10:21:44;;;;;;;3.53;0.30;;;20.90;53.60;;;;;;4948765;28;20493;-74
2022/07/10 10:24:11;;;;;;;2.85;0.75;;;20.80;52.70;;;;;;5014305;28;20045;-74
2022/07/10 10:26:37;;;;;;;2.95;0.45;;;20.30;53.20;;;;;;5012839;28;20034;-72
2022/07/10 10:29:04;;;;;;;1.10;0.30;;;20.40;53.80;;;;;;5009578;28;20046;-73
2022/07/10 10:31:31;;;;;;;1.95;0.45;;;20.20;53.40;;;;;;5012209;28;20049;-72
2022/07/10 10:34:00;;;;;;;3.20;0.47;;;19.90;53.90;;;;;;5012588;28;20053;-73
2022/07/10 10:36:32;;;;;;;2.30;0.45;;;20.20;53.50;;;;;;5013106;28;20470;-72
2022/07/10 10:39:16;;;;;;;3.47;0.45;;;20.30;54.70;;;;;;5012611;28;20037;-73
2022/07/10 10:41:47;;;;;;;3.42;0.60;;;19.90;54.00;;;;;;5011105;28;20517;-73
2022/07/10 10:44:17;;;;;;;1.40;0.38;;;19.90;54.40;;;;;;5012662;28;20509;-72
2022/07/10 10:47:00;;;;;;;2.15;0.30;;;20.10;53.90;;;;;;5011861;28;20499;-75
2022/07/10 10:49:48;;;;;;;1.73;0.60;;;20.40;53.10;;;;;;5012920;28;20053;-74
2022/07/10 10:52:15;;;;;;;5.15;0.40;;;20.60;54.60;;;;;;5004087;28;20052;-73
2022/07/10 10:54:57;;;;;;;0.68;0.30;;;20.70;52.50;;;;;;5012877;28;20471;-73
2022/07/10 10:57:31;;;;;;;2.10;0.50;;;20.60;54.40;;;;;;5011399;28;20037;-74
2022/07/10 10:59:59;;;;;;;2.15;0.50;;;20.30;53.80;;;;;;5015587;28;20056;-73
2022/07/10 11:02:39;;;;;;;0.82;0.32;;;20.00;54.20;;;;;;5012897;28;20058;-75
2022/07/10 11:05:12;;;;;;;1.92;0.80;;;20.10;54.70;;;;;;5014130;28;20041;-73
2022/07/10 11:07:54;;;;;;;3.38;0.60;;;20.50;54.00;;;;;;5012748;28;20037;-73
2022/07/10 11:10:26;;;;;;;4.35;0.95;;;20.50;53.20;;;;;;5012193;28;20033;-74
2022/07/10 11:13:03;;;;;;;2.55;0.50;;;20.40;53.30;;;;;;5008986;28;20037;-73
2022/07/10 11:15:32;;;;;;;3.55;0.63;;;20.30;53.30;;;;;;5012546;28;20041;-73
2022/07/10 11:18:28;;;;;;;1.48;0.35;;;20.50;52.30;;;;;;5011134;28;20395;-74
2022/07/10 11:20:55;;;;;;;1.42;0.47;;;20.50;53.50;;;;;;4995786;28;20041;-73
2022/07/10 11:23:46;;;;;;;6.47;0.93;;;20.70;54.80;;;;;;5004906;28;20383;-73
2022/07/10 11:26:36;;;;;;;4.30;0.60;;;20.80;53.40;;;;;;5011956;28;20041;-73
2022/07/10 11:29:06;;;;;;;2.22;0.38;;;20.90;53.10;;;;;;4981049;28;20038;-72
2022/07/10 11:31:44;;;;;;;1.75;0.32;;;21.00;53.20;;;;;;5010811;28;20387;-73
2022/07/10 11:34:10;;;;;;;1.00;0.40;;;21.00;52.40;;;;;;5013503;28;20038;-73
2022/07/10 11:36:39;;;;;;;3.15;0.50;;;21.30;53.70;;;;;;5029210;28;20049;-74
2022/07/10 11:39:08;;;;;;;6.30;0.70;;;21.30;52.10;;;;;;5031184;28;20052;-73
2022/07/10 11:41:42;;;;;;;1.92;0.70;;;21.10;53.00;;;;;;5011228;28;20045;-74
2022/07/10 11:44:15;;;;;;;5.15;0.60;;;20.80;53.60;;;;;;5012058;28;20044;-73
2022/07/10 11:46:44;;;;;;;2.95;0.85;;;21.00;53.00;;;;;;5011383;28;20398;-73
2022/07/10 11:49:10;;;;;;;2.90;0.77;;;20.70;54.00;;;;;;5012034;28;20479;-74
2022/07/10 11:51:40;;;;;;;4.82;0.70;;;20.80;54.30;;;;;;5010022;28;20121;-74
2022/07/10 11:54:16;;;;;;;1.55;0.52;;;21.00;54.20;;;;;;5011486;28;20044;-74
2022/07/10 11:56:51;;;;;;;2.30;0.50;;;21.40;53.90;;;;;;5011840;28;20038;-75
2022/07/10 11:59:23;;;;;;;1.92;0.60;;;21.50;52.80;;;;;;5005744;28;20030;-75
2022/07/10 12:01:51;;;;;;;2.63;0.50;;;21.30;53.60;;;;;;5009400;28;20049;-73
2022/07/10 12:04:23;;;;;;;2.53;0.60;;;21.50;53.90;;;;;;5011535;28;20406;-76
2022/07/10 12:06:51;;;;;;;3.20;0.50;;;21.30;54.00;;;;;;5006321;28;20037;-74
2022/07/10 12:09:20;;;;;;;3.13;0.60;;;21.50;53.90;;;;;;5010859;28;20033;-75
2022/07/10 12:12:06;;;;;;;2.35;0.60;;;21.40;54.10;;;;;;5004221;28;20034;-75
2022/07/10 12:14:33;;;;;;;2.25;0.63;;;21.00;54.50;;;;;;5007971;28;20479;-74
2022/07/10 12:16:59;;;;;;;4.30;0.70;;;21.40;53.60;;;;;;5010755;28;20034;-74
2022/07/10 12:19:36;;;;;;;3.00;0.55;;;21.90;54.60;;;;;;5011527;28;20042;-74
2022/07/10 12:22:04;;;;;;;2.47;0.63;;;21.80;53.00;;;;;;5010405;28;20362;-75
2022/07/10 12:24:30;;;;;;;2.03;0.85;;;21.50;53.90;;;;;;5010473;28;20045;-73
2022/07/10 12:26:58;;;;;;;3.00;0.50;;;21.70;54.70;;;;;;5011043;28;20037;-73
2022/07/10 12:29:29;;;;;;;2.85;1.58;;;21.70;55.00;;;;;;5011200;28;20025;-73
2022/07/10 12:31:58;;;;;;;3.42;0.50;;;21.50;53.80;;;;;;5009576;28;20043;-79
2022/07/10 12:34:34;;;;;;;2.08;0.63;;;21.40;53.70;;;;;;5011186;28;20038;-72
2022/07/10 12:37:10;;;;;;;2.78;0.52;;;21.70;53.80;;;;;;5011109;28;20029;-73
2022/07/10 12:39:48;;;;;;;5.13;0.93;;;22.40;54.40;;;;;;5011118;28;20374;-73
2022/07/10 12:42:28;;;;;;;1.33;0.57;;;22.20;52.60;;;;;;4992598;28;20037;-73
2022/07/10 12:45:12;;;;;;;2.58;0.80;;;21.60;54.20;;;;;;5011297;28;20030;-74
2022/07/10 12:47:48;;;;;;;2.47;0.60;;;21.90;54.90;;;;;;5011319;28;20038;-74
2022/07/10 12:50:17;;;;;;;3.38;0.60;;;22.10;52.90;;;;;;5008255;28;20045;-74
2022/07/10 12:52:43;;;;;;;4.03;0.73;;;21.50;53.50;;;;;;5009236;28;20049;-73
2022/07/10 12:55:15;;;;;;;3.00;0.75;;;21.20;54.10;;;;;;5010405;28;20102;-73
2022/07/10 12:58:06;;;;;;;2.05;0.40;;;21.20;54.80;;;;;;5010935;28;20038;-73
2022/07/10 13:00:35;;;;;;;;;;;21.40;54.70;;;;;;5010823;28;20038;-74
2022/07/10 13:03:06;;;;;;;1.42;0.35;;;21.40;54.10;;;;;;5003439;28;19928;-73
2022/07/10 13:05:40;;;;;;;4.63;0.70;;;21.50;55.10;;;;;;5003608;28;20045;-74